createdAt,value
2023-05-15T00:01:18.536Z,8.43
2023-05-15T00:03:45.593Z,8.38
2023-05-15T00:06:12.689Z,8.37
2023-05-15T00:08:39.768Z,8.33
2023-05-15T00:11:07.053Z,8.23
2023-05-15T00:13:34.034Z,8.10
2023-05-15T00:16:01.332Z,8.05
2023-05-15T00:18:28.536Z,8.01
2023-05-15T00:20:55.553Z,8.01
2023-05-15T00:23:22.738Z,8.03
2023-05-15T00:25:49.764Z,8.07
2023-05-15T00:28:16.738Z,8.15
2023-05-15T00:30:43.562Z,8.21
2023-05-15T00:33:10.814Z,8.24
2023-05-15T00:35:37.685Z,8.29
2023-05-15T00:38:04.592Z,8.36
2023-05-15T00:40:31.672Z,8.38
2023-05-15T00:42:58.886Z,8.27
2023-05-15T00:45:26.232Z,8.24
2023-05-15T00:47:54.700Z,8.17
2023-05-15T00:50:21.716Z,8.18
2023-05-15T00:52:48.668Z,8.15
2023-05-15T00:55:15.623Z,8.15
2023-05-15T00:57:43.324Z,8.17
2023-05-15T01:00:11.423Z,8.23
2023-05-15T01:02:38.530Z,8.26
2023-05-15T01:05:07.910Z,8.28
2023-05-15T01:07:38.282Z,8.33
2023-05-15T01:10:05.817Z,8.38
2023-05-15T01:12:32.998Z,8.44
2023-05-15T01:15:00.123Z,8.45
2023-05-15T01:17:27.102Z,8.50
2023-05-15T01:19:54.125Z,8.49
2023-05-15T01:22:39.868Z,8.49
2023-05-15T01:25:35.703Z,8.44
2023-05-15T01:28:18.138Z,8.43
2023-05-15T01:30:46.035Z,8.37
2023-05-15T01:33:18.559Z,8.39
2023-05-15T01:36:10.392Z,8.40
2023-05-15T01:39:10.454Z,8.42
2023-05-15T01:41:43.221Z,8.47
2023-05-15T01:44:22.584Z,8.51
2023-05-15T01:46:50.434Z,8.59
2023-05-15T01:49:19.347Z,8.63
2023-05-15T01:51:51.181Z,8.60
2023-05-15T01:54:18.204Z,8.58
2023-05-15T01:56:45.679Z,8.54
2023-05-15T01:59:13.649Z,8.46
2023-05-15T02:01:40.863Z,8.39
2023-05-15T02:04:07.959Z,8.36
2023-05-15T02:06:35.066Z,8.37
2023-05-15T02:09:02.704Z,8.34
2023-05-15T02:11:29.853Z,8.25
2023-05-15T02:13:58.212Z,8.17
2023-05-15T02:16:25.265Z,8.14
2023-05-15T02:18:53.070Z,8.06
2023-05-15T02:21:20.237Z,7.98
2023-05-15T02:23:47.187Z,7.94
2023-05-15T02:26:45.580Z,7.83
2023-05-15T02:29:24.372Z,7.77
2023-05-15T02:32:05.667Z,7.69
2023-05-15T02:34:58.995Z,7.62
2023-05-15T02:37:28.794Z,7.62
2023-05-15T02:39:55.684Z,7.66
2023-05-15T02:42:22.851Z,7.71
2023-05-15T02:44:50.540Z,7.73
2023-05-15T02:47:17.459Z,7.74
2023-05-15T02:49:44.594Z,7.75
2023-05-15T02:52:11.546Z,7.78
2023-05-15T02:54:38.625Z,7.74
2023-05-15T02:57:05.698Z,7.67
2023-05-15T02:59:33.144Z,7.62
2023-05-15T03:01:59.946Z,7.65
2023-05-15T03:04:27.086Z,7.67
2023-05-15T03:06:54.072Z,7.69
2023-05-15T03:09:21.180Z,7.66
2023-05-15T03:11:48.217Z,7.65
2023-05-15T03:14:16.238Z,7.62
2023-05-15T03:16:43.264Z,7.62
2023-05-15T03:19:10.682Z,7.67
2023-05-15T03:21:37.768Z,7.71
2023-05-15T03:24:05.007Z,7.66
2023-05-15T03:26:31.957Z,7.67
2023-05-15T03:28:58.893Z,7.72
2023-05-15T03:31:26.088Z,7.77
2023-05-15T03:33:53.248Z,7.79
2023-05-15T03:36:20.626Z,7.88
2023-05-15T03:38:47.696Z,7.99
2023-05-15T03:41:14.512Z,8.03
2023-05-15T03:43:41.456Z,8.01
2023-05-15T03:46:08.420Z,8.07
2023-05-15T03:48:35.431Z,8.09
2023-05-15T03:51:02.394Z,8.18
2023-05-15T03:53:29.555Z,8.22
2023-05-15T03:55:57.129Z,8.21
2023-05-15T03:58:24.277Z,8.16
2023-05-15T04:00:51.300Z,8.12
2023-05-15T04:03:19.474Z,8.05
2023-05-15T04:05:50.250Z,7.98
2023-05-15T04:08:17.170Z,8.00
2023-05-15T04:10:44.161Z,8.00
2023-05-15T04:13:10.960Z,7.98
2023-05-15T04:15:37.880Z,7.96
2023-05-15T04:18:05.045Z,7.92
2023-05-15T04:20:33.868Z,7.90
2023-05-15T04:23:01.531Z,7.96
2023-05-15T04:25:28.447Z,7.96
2023-05-15T04:27:56.505Z,7.98
2023-05-15T04:30:23.349Z,7.99
2023-05-15T04:32:52.161Z,8.02
2023-05-15T04:35:19.294Z,8.10
2023-05-15T04:37:46.203Z,8.19
2023-05-15T04:40:15.183Z,8.68
2023-05-15T04:42:42.103Z,9.26
2023-05-15T04:45:09.461Z,9.29
2023-05-15T04:47:36.868Z,9.30
2023-05-15T04:50:04.004Z,9.33
2023-05-15T04:52:31.121Z,9.39
2023-05-15T04:54:58.204Z,9.46
2023-05-15T04:57:26.016Z,9.52
2023-05-15T04:59:53.011Z,9.54
2023-05-15T05:02:23.231Z,9.55
2023-05-15T05:04:50.088Z,9.50
2023-05-15T05:07:17.137Z,9.50
2023-05-15T05:09:44.716Z,9.42
2023-05-15T05:12:11.591Z,9.39
2023-05-15T05:14:40.907Z,9.38
2023-05-15T05:17:07.695Z,9.33
2023-05-15T05:19:34.577Z,9.36
2023-05-15T05:22:04.985Z,9.45
2023-05-15T05:24:32.569Z,9.73
2023-05-15T05:26:59.522Z,9.86
2023-05-15T05:29:26.462Z,9.91
2023-05-15T05:31:53.860Z,9.98
2023-05-15T05:34:20.826Z,10.04
2023-05-15T05:36:47.789Z,10.15
2023-05-15T05:39:16.927Z,10.27
2023-05-15T05:41:44.270Z,10.38
2023-05-15T05:44:11.285Z,10.61
2023-05-15T05:46:38.212Z,10.95
2023-05-15T05:49:05.238Z,11.24
2023-05-15T05:51:32.124Z,11.39
2023-05-15T05:53:59.035Z,11.51
2023-05-15T05:56:26.863Z,11.65
2023-05-15T05:58:54.143Z,11.68
2023-05-15T06:01:21.321Z,11.69
2023-05-15T06:03:48.294Z,11.71
2023-05-15T06:06:15.241Z,11.58
2023-05-15T06:08:42.128Z,11.81
2023-05-15T06:11:08.973Z,11.87
2023-05-15T06:13:36.037Z,11.89
2023-05-15T06:16:02.865Z,12.14
2023-05-15T06:18:29.683Z,12.20
2023-05-15T06:21:01.848Z,12.18
2023-05-15T06:23:28.718Z,12.23
2023-05-15T06:25:55.609Z,12.42
2023-05-15T06:28:22.318Z,12.61
2023-05-15T06:30:49.466Z,12.94
2023-05-15T06:33:16.441Z,12.97
2023-05-15T06:35:43.397Z,13.32
2023-05-15T06:38:10.421Z,13.60
2023-05-15T06:40:37.307Z,13.42
2023-05-15T06:43:04.154Z,13.10
2023-05-15T06:45:31.734Z,13.39
2023-05-15T06:48:01.484Z,13.68
2023-05-15T06:50:28.991Z,13.98
2023-05-15T06:52:55.902Z,14.59
2023-05-15T06:55:22.956Z,14.85
2023-05-15T06:57:49.981Z,15.49
2023-05-15T07:00:17.260Z,16.14
2023-05-15T07:02:44.149Z,17.33
2023-05-15T07:05:11.752Z,18.58
2023-05-15T07:07:38.659Z,19.16
2023-05-15T07:10:06.892Z,19.55
2023-05-15T07:12:37.750Z,19.57
2023-05-15T07:15:05.675Z,20.21
2023-05-15T07:17:33.646Z,21.42
2023-05-15T07:20:00.651Z,21.69
2023-05-15T07:22:28.685Z,21.36
2023-05-15T07:24:55.540Z,21.58
2023-05-15T07:27:22.462Z,21.42
2023-05-15T07:29:49.469Z,20.94
2023-05-15T07:32:16.341Z,20.96
2023-05-15T07:34:43.306Z,20.63
2023-05-15T07:37:10.145Z,19.86
2023-05-15T07:39:37.041Z,19.11
2023-05-15T07:42:04.147Z,18.37
2023-05-15T07:44:31.223Z,17.63
2023-05-15T07:46:59.056Z,17.45
2023-05-15T07:49:26.012Z,17.04
2023-05-15T07:51:52.776Z,17.03
2023-05-15T07:54:19.621Z,16.84
2023-05-15T07:56:46.463Z,17.67
2023-05-15T07:59:13.311Z,18.13
2023-05-15T08:01:40.200Z,18.45
2023-05-15T08:04:09.307Z,18.00
2023-05-15T08:06:41.169Z,18.18
2023-05-15T08:09:09.644Z,17.97
2023-05-15T08:11:36.568Z,17.56
2023-05-15T08:14:03.426Z,17.57
2023-05-15T08:16:30.360Z,18.48
2023-05-15T08:19:01.773Z,19.48
2023-05-15T08:21:29.882Z,20.01
2023-05-15T08:23:57.165Z,20.38
2023-05-15T08:26:24.198Z,20.73
2023-05-15T08:28:51.302Z,20.86
2023-05-15T08:31:18.062Z,20.83
2023-05-15T08:33:46.035Z,20.93
2023-05-15T08:36:12.995Z,20.71
2023-05-15T08:38:39.882Z,19.85
2023-05-15T08:41:09.716Z,19.43
2023-05-15T08:43:37.472Z,19.26
2023-05-15T08:46:04.469Z,19.07
2023-05-15T08:48:31.436Z,18.98
2023-05-15T08:50:58.596Z,19.27
2023-05-15T08:53:25.747Z,19.33
2023-05-15T08:55:52.878Z,19.38
2023-05-15T08:58:21.769Z,19.46
2023-05-15T09:00:49.298Z,19.32
2023-05-15T09:03:16.598Z,18.65
2023-05-15T09:05:44.027Z,18.02
2023-05-15T09:08:11.090Z,17.99
2023-05-15T09:10:38.010Z,17.91
2023-05-15T09:13:05.994Z,17.54
2023-05-15T09:15:32.986Z,17.09
2023-05-15T09:17:59.954Z,16.83
2023-05-15T09:20:29.798Z,16.93
2023-05-15T09:22:57.248Z,16.59
2023-05-15T09:25:40.127Z,16.47
2023-05-15T09:28:08.560Z,16.70
2023-05-15T09:30:38.643Z,16.77
2023-05-15T09:33:06.010Z,16.84
2023-05-15T09:35:35.669Z,16.77
2023-05-15T09:38:04.615Z,16.79
2023-05-15T09:40:31.925Z,16.64
2023-05-15T09:42:59.530Z,16.50
2023-05-15T09:45:27.713Z,16.59
2023-05-15T09:47:55.043Z,16.56
2023-05-15T09:50:23.715Z,16.59
2023-05-15T09:52:52.120Z,17.41
2023-05-15T09:55:25.144Z,18.24
2023-05-15T09:58:13.924Z,19.07
2023-05-15T10:00:48.308Z,19.63
2023-05-15T10:03:21.197Z,20.01
2023-05-15T10:05:48.173Z,20.18
2023-05-15T10:08:15.985Z,20.23
2023-05-15T10:10:43.908Z,20.20
2023-05-15T10:13:11.356Z,20.11
2023-05-15T10:15:38.426Z,20.08
2023-05-15T10:18:05.453Z,20.16
2023-05-15T10:20:36.092Z,20.34
2023-05-15T10:23:04.967Z,20.39
2023-05-15T10:25:34.892Z,20.32
2023-05-15T10:28:02.188Z,20.04
2023-05-15T10:30:29.465Z,19.97
2023-05-15T10:32:56.599Z,19.22
2023-05-15T10:35:23.619Z,18.13
2023-05-15T10:37:50.497Z,17.38
2023-05-15T10:40:17.909Z,17.19
2023-05-15T10:42:47.924Z,17.75
2023-05-15T10:45:15.050Z,18.29
2023-05-15T10:47:43.009Z,18.50
2023-05-15T10:50:11.300Z,18.16
2023-05-15T10:52:38.974Z,17.50
2023-05-15T10:55:10.407Z,16.63
2023-05-15T10:57:38.344Z,15.58
2023-05-15T11:00:20.007Z,15.01
2023-05-15T11:02:46.987Z,14.78
2023-05-15T11:05:14.736Z,14.48
2023-05-15T11:07:41.712Z,14.15
2023-05-15T11:10:31.012Z,14.01
2023-05-15T11:12:59.006Z,13.77
2023-05-15T11:15:26.028Z,13.87
2023-05-15T11:18:04.236Z,14.10
2023-05-15T11:20:37.188Z,14.20
2023-05-15T11:23:06.356Z,14.11
2023-05-15T11:25:33.978Z,14.30
2023-05-15T11:28:01.088Z,14.70
2023-05-15T11:30:38.141Z,15.79
2023-05-15T11:33:09.087Z,16.25
2023-05-15T11:35:46.714Z,16.55
2023-05-15T11:38:17.707Z,16.50
2023-05-15T11:40:48.176Z,16.35
2023-05-15T11:43:25.203Z,16.17
2023-05-15T11:45:56.324Z,16.04
2023-05-15T11:48:24.972Z,16.03
2023-05-15T11:50:54.214Z,15.94
2023-05-15T11:53:21.618Z,15.99
2023-05-15T11:55:48.502Z,16.07
2023-05-15T11:58:20.427Z,16.16
2023-05-15T12:00:48.192Z,16.16
2023-05-15T12:03:25.741Z,16.16
2023-05-15T12:05:59.429Z,16.30
2023-05-15T12:08:38.162Z,16.36
2023-05-15T12:11:05.066Z,16.51
2023-05-15T12:13:32.543Z,16.50
2023-05-15T12:15:59.868Z,16.61
2023-05-15T12:18:26.830Z,16.79
2023-05-15T12:20:54.415Z,16.80
2023-05-15T12:23:23.466Z,16.80
2023-05-15T12:25:52.032Z,16.98
2023-05-15T12:28:18.865Z,17.37
2023-05-15T12:30:45.691Z,17.90
2023-05-15T12:33:12.533Z,18.22
2023-05-15T12:35:44.247Z,18.16
2023-05-15T12:38:16.144Z,18.42
2023-05-15T12:40:44.063Z,18.52
2023-05-15T12:43:11.076Z,18.13
2023-05-15T12:45:39.417Z,17.44
2023-05-15T12:48:08.154Z,16.56
2023-05-15T12:50:36.128Z,15.89
2023-05-15T12:53:05.058Z,15.17
2023-05-15T12:55:35.453Z,14.48
2023-05-15T12:58:08.715Z,13.93
2023-05-15T13:00:36.517Z,13.60
2023-05-15T13:03:03.893Z,13.11
2023-05-15T13:05:34.617Z,12.69
2023-05-15T13:08:04.075Z,12.49
2023-05-15T13:10:34.872Z,12.47
2023-05-15T13:13:01.681Z,12.39
2023-05-15T13:15:39.565Z,11.98
2023-05-15T13:18:08.101Z,11.70
2023-05-15T13:20:41.587Z,11.32
2023-05-15T13:23:09.180Z,11.24
2023-05-15T13:25:36.145Z,11.27
2023-05-15T13:28:05.531Z,11.29
2023-05-15T13:30:34.031Z,11.49
2023-05-15T13:33:01.541Z,11.63
2023-05-15T13:35:28.671Z,11.76
2023-05-15T13:37:56.502Z,11.97
2023-05-15T13:40:23.792Z,12.23
2023-05-15T13:42:50.840Z,12.41
2023-05-15T13:45:17.683Z,12.67
2023-05-15T13:47:44.871Z,12.71
2023-05-15T13:50:13.419Z,12.83
2023-05-15T13:52:40.792Z,12.79
2023-05-15T13:55:09.810Z,12.85
2023-05-15T13:57:38.371Z,12.97
2023-05-15T14:00:12.583Z,13.07
2023-05-15T14:02:43.661Z,13.20
2023-05-15T14:05:14.633Z,13.45
2023-05-15T14:07:41.673Z,13.78
2023-05-15T14:10:08.881Z,14.24
2023-05-15T14:12:36.645Z,14.57
2023-05-15T14:15:03.699Z,14.69
2023-05-15T14:17:30.681Z,14.76
2023-05-15T14:19:57.590Z,14.75
2023-05-15T14:22:25.303Z,14.76
2023-05-15T14:24:55.407Z,14.90
2023-05-15T14:27:22.277Z,14.95
2023-05-15T14:29:49.488Z,15.23
2023-05-15T14:32:17.166Z,15.51
2023-05-15T14:34:45.975Z,15.82
2023-05-15T14:37:13.435Z,16.23
2023-05-15T14:39:40.688Z,16.46
2023-05-15T14:42:07.997Z,16.65
2023-05-15T14:44:35.012Z,16.84
2023-05-15T14:47:09.200Z,16.92
2023-05-15T14:49:36.740Z,16.96
2023-05-15T14:52:07.558Z,16.67
2023-05-15T14:54:35.767Z,16.45
2023-05-15T14:57:02.660Z,16.19
2023-05-15T14:59:29.524Z,16.00
2023-05-15T15:01:56.657Z,15.82
2023-05-15T15:04:23.450Z,15.63
2023-05-15T15:06:50.631Z,15.53
2023-05-15T15:09:19.515Z,15.48
2023-05-15T15:11:47.822Z,15.47
2023-05-15T15:14:14.861Z,15.48
2023-05-15T15:16:44.395Z,15.36
2023-05-15T15:19:11.407Z,15.35
2023-05-15T15:21:38.311Z,15.41
2023-05-15T15:24:05.618Z,15.36
2023-05-15T15:26:32.613Z,15.22
2023-05-15T15:29:01.061Z,15.14
2023-05-15T15:31:31.189Z,14.88
2023-05-15T15:33:58.375Z,14.73
2023-05-15T15:36:25.241Z,14.73
2023-05-15T15:38:52.908Z,14.65
2023-05-15T15:41:21.776Z,14.54
2023-05-15T15:43:48.631Z,14.35
2023-05-15T15:46:15.639Z,14.10
2023-05-15T15:48:42.722Z,13.88
2023-05-15T15:51:09.575Z,13.72
2023-05-15T15:53:36.452Z,13.58
2023-05-15T15:56:04.154Z,13.35
2023-05-15T15:58:31.016Z,13.15
2023-05-15T16:00:58.151Z,13.06
2023-05-15T16:03:25.262Z,13.04
2023-05-15T16:05:52.168Z,12.92
2023-05-15T16:08:19.192Z,12.85
2023-05-15T16:10:46.128Z,12.78
2023-05-15T16:13:13.321Z,12.74
2023-05-15T16:15:40.602Z,12.73
2023-05-15T16:18:07.961Z,12.62
2023-05-15T16:20:35.395Z,12.50
2023-05-15T16:23:02.868Z,12.38
2023-05-15T16:25:29.760Z,12.38
2023-05-15T16:27:56.613Z,12.44
2023-05-15T16:30:33.835Z,12.46
2023-05-15T16:33:11.228Z,12.56
2023-05-15T16:35:38.559Z,12.57
2023-05-15T16:38:05.567Z,12.57
2023-05-15T16:40:32.420Z,12.49
2023-05-15T16:42:59.401Z,12.33
2023-05-15T16:45:26.338Z,12.17
2023-05-15T16:47:53.109Z,12.10
2023-05-15T16:50:20.093Z,12.01
2023-05-15T16:52:48.373Z,11.90
2023-05-15T16:55:16.235Z,11.75
2023-05-15T16:57:46.369Z,11.70
2023-05-15T17:00:14.427Z,11.78
2023-05-15T17:02:42.685Z,11.84
2023-05-15T17:05:10.834Z,11.85
2023-05-15T17:07:38.524Z,11.78
2023-05-15T17:10:07.240Z,11.76
2023-05-15T17:12:34.661Z,11.76
2023-05-15T17:15:01.628Z,11.83
2023-05-15T17:17:28.831Z,11.86
2023-05-15T17:19:56.159Z,11.86
2023-05-15T17:22:23.193Z,11.85
2023-05-15T17:24:51.960Z,11.87
2023-05-15T17:27:19.721Z,11.89
2023-05-15T17:29:46.868Z,12.04
2023-05-15T17:32:14.195Z,12.17
2023-05-15T17:34:41.215Z,12.25
2023-05-15T17:37:08.330Z,12.18
2023-05-15T17:39:35.571Z,12.19
2023-05-15T17:42:03.599Z,12.18
2023-05-15T17:44:31.556Z,12.18
2023-05-15T17:46:58.997Z,12.16
2023-05-15T17:49:26.518Z,12.11
2023-05-15T17:51:53.926Z,12.10
2023-05-15T17:54:20.912Z,12.11
2023-05-15T17:56:48.396Z,12.11
2023-05-15T17:59:15.412Z,12.11
2023-05-15T18:01:42.659Z,12.05
2023-05-15T18:04:09.941Z,11.99
2023-05-15T18:06:37.170Z,11.99
2023-05-15T18:09:05.410Z,11.96
2023-05-15T18:11:32.467Z,12.00
2023-05-15T18:13:59.650Z,11.98
2023-05-15T18:16:26.787Z,11.96
2023-05-15T18:18:53.918Z,11.91
2023-05-15T18:21:20.858Z,11.83
2023-05-15T18:23:47.869Z,11.80
2023-05-15T18:26:14.715Z,11.76
2023-05-15T18:28:41.732Z,11.74
2023-05-15T18:31:08.778Z,11.71
2023-05-15T18:33:35.871Z,11.71
2023-05-15T18:36:05.273Z,11.68
2023-05-15T18:38:33.975Z,11.65
2023-05-15T18:41:00.992Z,11.66
2023-05-15T18:43:28.146Z,11.64
2023-05-15T18:45:55.062Z,11.62
2023-05-15T18:48:21.869Z,11.63
2023-05-15T18:50:48.685Z,11.61
2023-05-15T18:53:15.860Z,11.50
2023-05-15T18:55:42.806Z,11.42
2023-05-15T18:58:09.696Z,11.39
2023-05-15T19:00:39.109Z,11.34
2023-05-15T19:03:08.230Z,11.26
2023-05-15T19:05:35.599Z,11.20
2023-05-15T19:08:02.489Z,11.17
2023-05-15T19:10:29.744Z,11.20
2023-05-15T19:12:57.536Z,11.17
2023-05-15T19:15:25.096Z,11.05
2023-05-15T19:17:52.294Z,10.99
2023-05-15T19:20:19.833Z,10.90
2023-05-15T19:22:46.895Z,10.80
2023-05-15T19:25:13.816Z,10.74
2023-05-15T19:27:40.692Z,10.63
2023-05-15T19:30:09.889Z,10.57
2023-05-15T19:32:37.436Z,10.47
2023-05-15T19:35:05.315Z,10.39
2023-05-15T19:37:32.170Z,10.34
2023-05-15T19:39:59.079Z,10.30
2023-05-15T19:42:26.744Z,10.28
2023-05-15T19:44:53.697Z,10.27
2023-05-15T19:47:20.821Z,10.24
2023-05-15T19:49:47.743Z,10.18
2023-05-15T19:52:15.963Z,10.11
2023-05-15T19:54:42.964Z,10.01
2023-05-15T19:57:09.931Z,9.93
2023-05-15T19:59:36.965Z,9.82
2023-05-15T20:02:05.865Z,9.70
2023-05-15T20:04:34.275Z,9.58
2023-05-15T20:07:01.196Z,9.50
2023-05-15T20:09:28.049Z,9.41
2023-05-15T20:11:55.228Z,9.33
2023-05-15T20:14:22.214Z,9.29
2023-05-15T20:16:49.097Z,9.25
2023-05-15T20:19:17.436Z,9.22
2023-05-15T20:21:44.356Z,9.24
2023-05-15T20:24:12.274Z,9.22
2023-05-15T20:26:39.249Z,9.16
2023-05-15T20:29:06.198Z,9.08
2023-05-15T20:31:33.933Z,9.06
2023-05-15T20:34:01.289Z,9.10
2023-05-15T20:36:28.500Z,9.18
2023-05-15T20:38:55.917Z,9.24
2023-05-15T20:41:23.301Z,9.28
2023-05-15T20:43:50.441Z,9.29
2023-05-15T20:46:17.468Z,9.27
2023-05-15T20:48:44.719Z,9.30
2023-05-15T20:51:11.643Z,9.34
2023-05-15T20:53:38.456Z,9.37
2023-05-15T20:56:05.581Z,9.39
2023-05-15T20:58:32.503Z,9.41
2023-05-15T21:01:02.528Z,9.43
2023-05-15T21:03:29.573Z,9.43
2023-05-15T21:05:57.583Z,9.43
2023-05-15T21:08:24.613Z,9.43
2023-05-15T21:10:53.436Z,9.39
2023-05-15T21:13:20.500Z,9.34
2023-05-15T21:15:47.371Z,9.34
2023-05-15T21:18:14.311Z,9.34
2023-05-15T21:20:42.187Z,9.33
2023-05-15T21:23:09.074Z,9.23
2023-05-15T21:25:36.166Z,9.15
2023-05-15T21:28:03.968Z,9.09
2023-05-15T21:30:32.063Z,9.03
2023-05-15T21:32:59.255Z,8.92
2023-05-15T21:35:29.141Z,8.80
2023-05-15T21:37:55.981Z,8.73
2023-05-15T21:40:22.802Z,8.69
2023-05-15T21:42:49.629Z,8.67
2023-05-15T21:45:16.544Z,8.62
2023-05-15T21:47:43.584Z,8.59
2023-05-15T21:50:10.991Z,8.58
2023-05-15T21:52:37.815Z,8.54
2023-05-15T21:55:05.087Z,8.46
2023-05-15T21:57:32.243Z,8.33
2023-05-15T21:59:59.205Z,8.25
2023-05-15T22:02:26.140Z,8.24
2023-05-15T22:04:53.102Z,8.24
2023-05-15T22:07:20.910Z,8.29
2023-05-15T22:09:47.966Z,8.30
2023-05-15T22:12:14.793Z,8.30
2023-05-15T22:14:57.040Z,8.33
2023-05-15T22:17:27.599Z,8.37
2023-05-15T22:19:54.604Z,8.41
2023-05-15T22:22:21.484Z,8.53
2023-05-15T22:24:48.517Z,8.62
2023-05-15T22:27:17.060Z,8.73
2023-05-15T22:29:44.097Z,8.79
2023-05-15T22:32:10.938Z,8.77
2023-05-15T22:34:38.233Z,8.83
2023-05-15T22:37:05.186Z,8.77
2023-05-15T22:39:32.959Z,8.76
2023-05-15T22:41:59.877Z,8.79
2023-05-15T22:44:26.707Z,8.89
2023-05-15T22:46:54.573Z,8.93
2023-05-15T22:49:25.522Z,8.91
2023-05-15T22:51:53.685Z,8.89
2023-05-15T22:54:22.306Z,8.87
2023-05-15T22:56:53.659Z,8.88
2023-05-15T22:59:21.045Z,8.92
2023-05-15T23:01:49.368Z,8.99
2023-05-15T23:04:17.050Z,9.09
2023-05-15T23:06:44.025Z,9.13
2023-05-15T23:09:11.064Z,9.14
2023-05-15T23:11:38.075Z,9.11
2023-05-15T23:14:04.998Z,9.07
2023-05-15T23:16:31.955Z,9.03
2023-05-15T23:18:58.964Z,9.08
2023-05-15T23:21:26.172Z,9.13
2023-05-15T23:23:53.552Z,9.16
2023-05-15T23:26:21.185Z,9.19
2023-05-15T23:28:48.271Z,9.22
2023-05-15T23:31:15.171Z,9.32
2023-05-15T23:33:42.158Z,9.37
2023-05-15T23:36:09.141Z,9.41
2023-05-15T23:38:38.499Z,9.39
2023-05-15T23:41:05.141Z,9.38
2023-05-15T23:43:32.723Z,9.40
2023-05-15T23:45:59.717Z,9.43
2023-05-15T23:48:26.541Z,9.44
2023-05-15T23:50:53.661Z,9.47
2023-05-15T23:53:20.527Z,9.44
2023-05-15T23:55:47.363Z,9.44
2023-05-15T23:58:14.152Z,9.42
